メインページ
METAR-TAF:

METAR-TAF

空港 :

Omak Airport

Omak, ワシントン, アメリカ合衆国

緯度: 48-27-51N, 経度: 119-31-05W, 海抜: 397m

現時点の気象観測

当レポートは1時間1分前の00:53(UTC)に作成
の風 19kt、最大26ktの突風を伴う
気温 23°C
湿度 29%
気圧 1008 hPa
視程: 16.1km
高度11000ftの雲は散在している

METAR: KOMK 260053Z AUTO 36019G26KT 10SM SCT110 23/04 A2977 RMK AO2 PK WND 36027/0020 SLP077 T02330044

時間: 18:54 (01:54 UTC)


TAF: 見つかりません

4,000以上の空港の気象観測と天気予報(METAR報とTAF報)

利用可能な観測所は地図上に黄色い丸と赤い丸で示す。

丸の上にカーソルを重ねると観測所名を参照できる。

次にクリックすると気象観測と天気予報を参照できる。

マップの切り替え:黒色「×」印の緑ボタンをクリックして拡大、「-」印の緑ボタンをクリックして縮小、緑色の三角印をクリックして隣りの地図に切り替え


METAR-TAF: